createdAt,value
2019-02-17T00:01:15.548Z,11.30
2019-02-17T00:03:44.021Z,13.80
2019-02-17T00:06:12.492Z,11.53
2019-02-17T00:08:40.945Z,14.73
2019-02-17T00:11:09.416Z,12.37
2019-02-17T00:13:37.878Z,11.80
2019-02-17T00:16:06.395Z,12.77
2019-02-17T00:18:34.858Z,13.27
2019-02-17T00:21:03.346Z,14.60
2019-02-17T00:23:31.804Z,15.63
2019-02-17T00:26:00.283Z,11.63
2019-02-17T00:28:28.750Z,19.33
2019-02-17T00:30:57.220Z,14.43
2019-02-17T00:33:25.682Z,14.27
2019-02-17T00:35:54.182Z,18.20
2019-02-17T00:38:22.648Z,13.67
2019-02-17T00:40:51.140Z,12.73
2019-02-17T00:43:19.602Z,12.80
2019-02-17T00:45:48.076Z,15.40
2019-02-17T00:48:16.540Z,11.77
2019-02-17T00:50:45.027Z,12.20
2019-02-17T00:53:13.474Z,15.37
2019-02-17T00:55:41.952Z,14.20
2019-02-17T00:58:10.435Z,14.57
2019-02-17T01:00:38.894Z,18.20
2019-02-17T01:03:07.356Z,12.77
2019-02-17T01:05:35.901Z,14.87
2019-02-17T01:08:04.364Z,12.10
2019-02-17T01:10:32.839Z,19.50
2019-02-17T01:13:01.297Z,12.70
2019-02-17T01:15:29.778Z,14.13
2019-02-17T01:17:58.242Z,14.70
2019-02-17T01:20:26.717Z,14.93
2019-02-17T01:22:55.182Z,16.30
2019-02-17T01:25:23.660Z,13.17
2019-02-17T01:27:52.124Z,12.17
2019-02-17T01:30:20.597Z,17.23
2019-02-17T01:32:49.060Z,13.60
2019-02-17T01:35:17.538Z,12.33
2019-02-17T01:37:45.996Z,13.37
2019-02-17T01:40:14.552Z,15.43
2019-02-17T01:42:43.075Z,13.10
2019-02-17T01:45:11.609Z,15.93
2019-02-17T01:47:40.069Z,14.97
2019-02-17T01:50:09.491Z,14.83
2019-02-17T01:52:37.947Z,14.73
2019-02-17T01:55:08.159Z,17.27
2019-02-17T01:57:36.711Z,13.23
2019-02-17T02:00:10.984Z,16.20
2019-02-17T02:02:39.445Z,14.53
2019-02-17T02:05:08.063Z,15.90
2019-02-17T02:07:36.507Z,15.67
2019-02-17T02:10:07.610Z,14.67
2019-02-17T02:12:36.049Z,13.50
2019-02-17T02:15:11.949Z,14.63
2019-02-17T02:17:40.387Z,14.07
2019-02-17T02:20:11.404Z,15.60
2019-02-17T02:22:39.917Z,13.73
2019-02-17T02:25:08.660Z,14.13
2019-02-17T02:27:37.130Z,15.77
2019-02-17T02:30:09.013Z,15.53
2019-02-17T02:32:37.552Z,13.73
2019-02-17T02:35:07.161Z,15.57
2019-02-17T02:37:35.693Z,15.47
2019-02-17T02:40:04.501Z,14.00
2019-02-17T02:42:32.960Z,13.97
2019-02-17T02:45:01.442Z,14.73
2019-02-17T02:47:29.899Z,13.77
2019-02-17T02:49:58.384Z,14.03
2019-02-17T02:52:26.856Z,14.10
2019-02-17T02:54:55.331Z,15.40
2019-02-17T02:57:23.792Z,12.53
2019-02-17T02:59:52.832Z,14.23
2019-02-17T03:02:21.405Z,13.50
2019-02-17T03:04:49.875Z,18.80
2019-02-17T03:07:18.417Z,13.73
2019-02-17T03:09:46.960Z,15.97
2019-02-17T03:12:15.443Z,13.20
2019-02-17T03:14:43.903Z,15.90
2019-02-17T03:17:12.386Z,14.00
2019-02-17T03:19:40.837Z,14.20
2019-02-17T03:22:09.304Z,15.67
2019-02-17T03:24:37.759Z,16.40
2019-02-17T03:27:06.241Z,15.50
2019-02-17T03:29:34.724Z,14.30
2019-02-17T03:32:03.219Z,15.23
2019-02-17T03:34:31.734Z,14.33
2019-02-17T03:37:00.274Z,14.60
2019-02-17T03:39:28.753Z,14.07
2019-02-17T03:41:57.314Z,13.60
2019-02-17T03:44:25.842Z,17.13
2019-02-17T03:46:54.308Z,15.47
2019-02-17T03:49:22.764Z,16.13
2019-02-17T03:51:51.232Z,14.13
2019-02-17T03:54:19.685Z,14.40
2019-02-17T03:56:48.168Z,16.03
2019-02-17T03:59:16.628Z,15.73
2019-02-17T04:01:45.098Z,15.67
2019-02-17T04:04:13.560Z,17.87
2019-02-17T04:06:42.044Z,16.00
2019-02-17T04:09:10.514Z,16.87
2019-02-17T04:11:38.998Z,17.17
2019-02-17T04:14:07.461Z,18.10
2019-02-17T04:16:35.920Z,15.07
2019-02-17T04:19:04.388Z,15.73
2019-02-17T04:21:33.549Z,15.40
2019-02-17T04:24:02.118Z,14.87
2019-02-17T04:26:30.590Z,17.03
2019-02-17T04:28:59.060Z,14.67
2019-02-17T04:31:27.541Z,15.13
2019-02-17T04:33:56.098Z,15.53
2019-02-17T04:36:24.946Z,20.60
2019-02-17T04:38:53.447Z,16.37
2019-02-17T04:41:21.988Z,16.77
2019-02-17T04:43:50.455Z,16.93
2019-02-17T04:46:19.348Z,17.17
2019-02-17T04:48:47.872Z,15.53
2019-02-17T04:51:16.351Z,16.77
2019-02-17T04:53:44.813Z,16.43
2019-02-17T04:56:13.299Z,16.93
2019-02-17T04:58:41.774Z,17.27
2019-02-17T05:01:10.255Z,20.30
2019-02-17T05:03:38.721Z,18.00
2019-02-17T05:06:07.692Z,17.13
2019-02-17T05:08:36.218Z,17.33
2019-02-17T05:11:04.900Z,18.10
2019-02-17T05:13:33.419Z,17.73
2019-02-17T05:16:01.894Z,21.50
2019-02-17T05:18:30.374Z,17.80
2019-02-17T05:20:58.838Z,16.13
2019-02-17T05:23:27.322Z,17.90
2019-02-17T05:25:55.784Z,16.60
2019-02-17T05:28:24.258Z,20.03
2019-02-17T05:30:53.533Z,19.43
2019-02-17T05:33:22.174Z,19.47
2019-02-17T05:35:50.628Z,21.43
2019-02-17T05:38:19.138Z,18.20
2019-02-17T05:40:47.611Z,16.50
2019-02-17T05:43:16.078Z,19.03
2019-02-17T05:45:44.557Z,19.73
2019-02-17T05:48:13.042Z,19.97
2019-02-17T05:50:41.497Z,20.67
2019-02-17T05:53:09.987Z,20.23
2019-02-17T05:55:38.629Z,20.87
2019-02-17T05:58:07.199Z,18.87
2019-02-17T06:00:36.228Z,20.70
2019-02-17T06:03:04.790Z,28.07
2019-02-17T06:05:33.273Z,21.20
2019-02-17T06:08:01.813Z,21.40
2019-02-17T06:10:30.294Z,22.50
2019-02-17T06:12:58.775Z,21.53
2019-02-17T06:15:27.225Z,18.70
2019-02-17T06:17:55.696Z,23.00
2019-02-17T06:20:24.176Z,25.70
2019-02-17T06:22:52.647Z,20.90
2019-02-17T06:25:21.121Z,21.00
2019-02-17T06:27:49.598Z,19.83
2019-02-17T06:30:18.069Z,21.93
2019-02-17T06:32:46.550Z,23.07
2019-02-17T06:35:15.024Z,19.70
2019-02-17T06:37:43.501Z,21.77
2019-02-17T06:40:11.994Z,22.27
2019-02-17T06:42:40.473Z,20.23
2019-02-17T06:45:10.090Z,26.03
2019-02-17T06:47:38.556Z,22.97
2019-02-17T06:50:09.288Z,22.23
2019-02-17T06:52:37.814Z,18.83
2019-02-17T06:55:23.623Z,22.43
2019-02-17T06:57:52.096Z,22.10
2019-02-17T07:00:22.207Z,23.47
2019-02-17T07:02:50.682Z,19.57
2019-02-17T07:05:33.208Z,20.13
2019-02-17T07:08:02.009Z,22.00
2019-02-17T07:10:30.810Z,20.70
2019-02-17T07:12:59.497Z,22.03
2019-02-17T07:15:28.039Z,26.53
2019-02-17T07:17:56.516Z,25.37
2019-02-17T07:20:25.007Z,26.37
2019-02-17T07:22:53.498Z,22.00
2019-02-17T07:25:29.782Z,22.90
2019-02-17T07:27:52.709Z,23.60
2019-02-17T07:30:21.230Z,23.00
2019-02-17T07:32:49.696Z,28.40
2019-02-17T07:35:18.169Z,23.47
2019-02-17T07:37:46.643Z,21.80
2019-02-17T07:40:15.130Z,23.87
2019-02-17T07:42:43.601Z,24.77
2019-02-17T07:45:12.317Z,22.27
2019-02-17T07:47:40.874Z,23.27
2019-02-17T07:50:10.648Z,22.93
2019-02-17T07:52:39.158Z,25.87
2019-02-17T07:55:10.149Z,25.47
2019-02-17T07:57:38.612Z,25.57
2019-02-17T08:00:10.295Z,27.63
2019-02-17T08:02:38.818Z,23.73
2019-02-17T08:05:08.374Z,25.87
2019-02-17T08:07:36.856Z,24.97
2019-02-17T08:10:09.890Z,26.73
2019-02-17T08:12:38.370Z,28.00
2019-02-17T08:15:09.580Z,29.33
2019-02-17T08:17:38.054Z,25.30
2019-02-17T08:20:10.840Z,25.50
2019-02-17T08:22:39.315Z,26.33
2019-02-17T08:25:08.635Z,25.03
2019-02-17T08:27:37.126Z,29.07
2019-02-17T08:30:11.670Z,22.53
2019-02-17T08:32:40.221Z,24.73
2019-02-17T08:35:09.029Z,28.63
2019-02-17T08:37:37.499Z,33.07
2019-02-17T08:40:10.335Z,25.47
2019-02-17T08:42:38.818Z,26.93
2019-02-17T08:45:09.018Z,27.57
2019-02-17T08:47:37.533Z,26.93
2019-02-17T08:50:09.005Z,24.07
2019-02-17T08:52:37.622Z,30.97
2019-02-17T08:55:08.929Z,26.03
2019-02-17T08:57:38.219Z,25.48
2019-02-17T09:00:13.888Z,24.90
2019-02-17T09:02:42.365Z,29.60
2019-02-17T09:05:11.485Z,26.82
2019-02-17T09:07:40.562Z,28.10
2019-02-17T09:10:11.850Z,30.50
2019-02-17T09:12:40.923Z,30.32
2019-02-17T09:15:11.809Z,29.15
2019-02-17T09:17:40.869Z,26.17
2019-02-17T09:20:11.565Z,28.75
2019-02-17T09:22:40.621Z,28.05
2019-02-17T09:25:11.123Z,27.20
2019-02-17T09:27:40.172Z,29.82
2019-02-17T09:30:12.051Z,27.22
2019-02-17T09:32:41.129Z,27.40
2019-02-17T09:35:10.203Z,32.42
2019-02-17T09:37:39.255Z,26.50
2019-02-17T09:40:10.661Z,26.68
2019-02-17T09:42:39.706Z,25.68
2019-02-17T09:45:11.614Z,27.90
2019-02-17T09:47:40.665Z,26.33
2019-02-17T09:50:14.405Z,26.87
2019-02-17T09:52:43.464Z,25.45
2019-02-17T09:55:12.550Z,24.82
2019-02-17T09:57:41.609Z,24.63
2019-02-17T10:00:15.240Z,25.62
2019-02-17T10:02:44.309Z,24.18
2019-02-17T10:05:32.715Z,27.80
2019-02-17T10:08:01.770Z,25.05
2019-02-17T10:10:30.858Z,31.05
2019-02-17T10:13:01.396Z,29.45
2019-02-17T10:15:30.644Z,28.12
2019-02-17T10:17:59.714Z,27.82
2019-02-17T10:20:28.756Z,27.00
2019-02-17T10:22:57.812Z,27.58
2019-02-17T10:25:26.864Z,28.60
2019-02-17T10:27:55.960Z,27.62
2019-02-17T10:30:25.070Z,26.90
2019-02-17T10:32:54.127Z,29.10
2019-02-17T10:35:23.182Z,26.45
2019-02-17T10:37:52.252Z,29.37
2019-02-17T10:40:21.302Z,27.50
2019-02-17T10:42:50.370Z,26.90
2019-02-17T10:45:19.420Z,28.45
2019-02-17T10:47:48.470Z,29.63
2019-02-17T10:50:17.552Z,29.48
2019-02-17T10:52:46.666Z,28.57
2019-02-17T10:55:15.737Z,27.05
2019-02-17T10:57:44.794Z,27.82
2019-02-17T11:00:19.387Z,27.58
2019-02-17T11:02:48.432Z,26.33
2019-02-17T11:05:17.666Z,26.95
2019-02-17T11:07:46.724Z,29.40
2019-02-17T11:10:15.799Z,29.35
2019-02-17T11:12:44.852Z,31.25
2019-02-17T11:15:20.357Z,26.35
2019-02-17T11:17:49.415Z,29.42
2019-02-17T11:20:18.503Z,32.58
2019-02-17T11:22:47.559Z,29.70
2019-02-17T11:25:16.656Z,27.25
2019-02-17T11:27:46.335Z,28.80
2019-02-17T11:30:20.476Z,28.32
2019-02-17T11:32:57.509Z,29.57
2019-02-17T11:35:20.488Z,29.50
2019-02-17T11:37:49.541Z,31.02
2019-02-17T11:40:18.602Z,27.30
2019-02-17T11:42:47.651Z,28.35
2019-02-17T11:45:18.555Z,28.30
2019-02-17T11:47:47.623Z,26.77
2019-02-17T11:50:16.697Z,30.45
2019-02-17T11:52:45.757Z,28.30
2019-02-17T11:55:15.860Z,29.07
2019-02-17T11:57:44.991Z,29.15
2019-02-17T12:00:19.705Z,31.05
2019-02-17T12:02:48.943Z,30.90
2019-02-17T12:05:18.190Z,30.45
2019-02-17T12:07:47.251Z,25.95
2019-02-17T12:10:16.378Z,29.72
2019-02-17T12:12:45.446Z,28.85
2019-02-17T12:15:14.886Z,30.50
2019-02-17T12:17:43.944Z,25.40
2019-02-17T12:20:35.439Z,29.92
2019-02-17T12:23:06.211Z,26.93
2019-02-17T12:25:36.983Z,28.02
2019-02-17T12:28:07.685Z,30.17
2019-02-17T12:30:37.818Z,31.25
2019-02-17T12:33:06.869Z,28.52
2019-02-17T12:35:36.120Z,28.12
2019-02-17T12:38:05.192Z,27.37
2019-02-17T12:40:34.268Z,27.05
2019-02-17T12:43:03.319Z,29.48
2019-02-17T12:45:32.374Z,29.60
2019-02-17T12:48:01.498Z,26.93
2019-02-17T12:50:30.560Z,28.12
2019-02-17T12:52:59.624Z,32.05
2019-02-17T12:55:28.684Z,28.05
2019-02-17T12:57:57.740Z,27.17
2019-02-17T13:00:26.804Z,25.77
2019-02-17T13:02:55.864Z,25.60
2019-02-17T13:05:24.913Z,28.80
2019-02-17T13:07:53.985Z,32.95
2019-02-17T13:10:23.036Z,25.57
2019-02-17T13:12:52.098Z,25.50
2019-02-17T13:15:21.157Z,26.95
2019-02-17T13:17:50.248Z,25.32
2019-02-17T13:20:19.365Z,26.97
2019-02-17T13:22:48.444Z,22.55
2019-02-17T13:25:18.245Z,25.92
2019-02-17T13:27:47.305Z,24.12
2019-02-17T13:30:22.333Z,23.27
2019-02-17T13:32:51.471Z,27.13
2019-02-17T13:35:20.524Z,22.25
2019-02-17T13:37:49.597Z,21.23
2019-02-17T13:40:18.759Z,22.95
2019-02-17T13:42:47.821Z,23.38
2019-02-17T13:45:17.447Z,25.12
2019-02-17T13:47:46.519Z,21.45
2019-02-17T13:50:16.512Z,23.07
2019-02-17T13:52:45.578Z,23.77
2019-02-17T13:55:14.711Z,25.25
2019-02-17T13:57:43.791Z,27.10
2019-02-17T14:00:18.531Z,22.15
2019-02-17T14:02:47.659Z,24.30
2019-02-17T14:05:16.811Z,22.75
2019-02-17T14:07:46.083Z,21.85
2019-02-17T14:10:15.558Z,23.92
2019-02-17T14:12:44.626Z,25.30
2019-02-17T14:15:18.537Z,25.90
2019-02-17T14:17:47.687Z,23.90
2019-02-17T14:20:16.745Z,25.32
2019-02-17T14:22:45.792Z,20.45
2019-02-17T14:25:14.868Z,22.35
2019-02-17T14:27:43.981Z,23.73
2019-02-17T14:30:17.583Z,23.90
2019-02-17T14:32:46.634Z,26.45
2019-02-17T14:35:15.696Z,24.43
2019-02-17T14:37:44.754Z,25.48
2019-02-17T14:40:14.474Z,27.67
2019-02-17T14:42:43.602Z,26.40
2019-02-17T14:45:16.508Z,26.37
2019-02-17T14:47:45.566Z,30.27
2019-02-17T14:50:14.702Z,31.77
2019-02-17T14:52:43.767Z,26.85
2019-02-17T14:55:13.210Z,29.55
2019-02-17T14:57:42.255Z,25.70
2019-02-17T15:00:14.329Z,29.75
2019-02-17T15:02:43.384Z,28.73
2019-02-17T15:05:12.536Z,30.52
2019-02-17T15:07:41.604Z,28.92
2019-02-17T15:10:14.512Z,26.93
2019-02-17T15:12:43.561Z,26.42
2019-02-17T15:15:14.166Z,29.77
2019-02-17T15:17:43.217Z,27.32
2019-02-17T15:20:14.429Z,28.10
2019-02-17T15:22:43.479Z,33.18
2019-02-17T15:25:12.639Z,29.52
2019-02-17T15:27:41.744Z,30.05
2019-02-17T15:30:17.743Z,31.62
2019-02-17T15:32:46.431Z,33.05
2019-02-17T15:35:15.544Z,31.95
2019-02-17T15:37:44.606Z,27.73
2019-02-17T15:40:14.709Z,29.75
2019-02-17T15:42:43.762Z,29.10
2019-02-17T15:45:13.765Z,25.70
2019-02-17T15:47:42.813Z,23.35
2019-02-17T15:50:14.102Z,27.55
2019-02-17T15:52:43.177Z,31.42
2019-02-17T15:55:13.587Z,28.62
2019-02-17T15:57:42.657Z,26.80
2019-02-17T16:00:16.438Z,29.72
2019-02-17T16:02:45.490Z,26.95
2019-02-17T16:05:14.825Z,25.88
2019-02-17T16:07:43.878Z,29.63
2019-02-17T16:10:16.944Z,29.57
2019-02-17T16:12:46.007Z,30.50
2019-02-17T16:15:20.241Z,27.80
2019-02-17T16:17:49.294Z,30.70
2019-02-17T16:20:18.355Z,32.25
2019-02-17T16:22:47.408Z,29.37
2019-02-17T16:25:16.501Z,34.15
2019-02-17T16:27:45.550Z,33.08
2019-02-17T16:30:19.454Z,27.98
2019-02-17T16:32:48.505Z,29.12
2019-02-17T16:35:17.634Z,32.00
2019-02-17T16:37:46.690Z,33.40
2019-02-17T16:40:16.995Z,30.70
2019-02-17T16:42:46.098Z,38.63
2019-02-17T16:45:15.510Z,36.30
2019-02-17T16:47:45.007Z,35.78
2019-02-17T16:50:28.197Z,39.18
2019-02-17T16:52:57.237Z,36.42
2019-02-17T16:55:26.335Z,35.80
2019-02-17T16:57:55.390Z,40.15
2019-02-17T17:00:27.662Z,39.60
2019-02-17T17:02:57.358Z,39.03
2019-02-17T17:05:26.491Z,36.63
2019-02-17T17:07:55.540Z,37.17
2019-02-17T17:10:24.780Z,41.13
2019-02-17T17:12:53.906Z,37.42
2019-02-17T17:15:22.970Z,39.15
2019-02-17T17:17:52.022Z,39.63
2019-02-17T17:20:22.314Z,41.40
2019-02-17T17:22:51.365Z,38.45
2019-02-17T17:25:20.449Z,35.25
2019-02-17T17:27:49.500Z,40.73
2019-02-17T17:30:19.522Z,40.88
2019-02-17T17:32:48.571Z,37.88
2019-02-17T17:35:17.634Z,36.93
2019-02-17T17:37:46.679Z,37.60
2019-02-17T17:40:16.895Z,42.05
2019-02-17T17:42:45.949Z,39.15
2019-02-17T17:45:17.422Z,38.00
2019-02-17T17:47:48.265Z,43.33
2019-02-17T17:50:17.505Z,40.15
2019-02-17T17:52:46.573Z,44.90
2019-02-17T17:55:15.711Z,42.70
2019-02-17T17:57:44.762Z,38.42
2019-02-17T18:00:25.722Z,40.67
2019-02-17T18:02:54.786Z,46.85
2019-02-17T18:05:23.855Z,41.90
2019-02-17T18:07:52.904Z,50.67
2019-02-17T18:10:21.972Z,36.83
2019-02-17T18:12:51.402Z,42.78
2019-02-17T18:15:20.828Z,39.78
2019-02-17T18:17:54.345Z,40.63
2019-02-17T18:20:20.928Z,38.15
2019-02-17T18:22:49.968Z,40.25
2019-02-17T18:25:19.096Z,36.25
2019-02-17T18:27:48.167Z,36.73
2019-02-17T18:30:18.584Z,41.73
2019-02-17T18:32:47.656Z,41.33
2019-02-17T18:35:20.372Z,44.67
2019-02-17T18:37:47.567Z,45.60
2019-02-17T18:40:20.407Z,44.95
2019-02-17T18:42:49.454Z,39.95
2019-02-17T18:45:18.518Z,40.65
2019-02-17T18:47:47.586Z,35.58
2019-02-17T18:50:17.886Z,33.48
2019-02-17T18:52:47.004Z,28.30
2019-02-17T18:55:16.098Z,22.20
2019-02-17T18:57:49.974Z,18.85
2019-02-17T19:00:18.615Z,17.23
2019-02-17T19:02:47.672Z,20.88
2019-02-17T19:05:16.730Z,19.95
2019-02-17T19:07:45.979Z,18.52
2019-02-17T19:10:15.330Z,17.77
2019-02-17T19:12:44.448Z,18.17
2019-02-17T19:15:23.662Z,17.67
2019-02-17T19:17:52.716Z,15.18
2019-02-17T19:20:27.821Z,16.05
2019-02-17T19:22:56.865Z,21.50
2019-02-17T19:25:25.941Z,18.62
2019-02-17T19:27:54.988Z,15.05
2019-02-17T19:30:24.049Z,19.75
2019-02-17T19:32:54.661Z,26.52
2019-02-17T19:35:23.711Z,21.27
2019-02-17T19:37:52.764Z,27.82
2019-02-17T19:40:21.838Z,18.80
2019-02-17T19:42:50.888Z,12.37
2019-02-17T19:45:20.219Z,14.20
2019-02-17T19:47:49.260Z,15.40
2019-02-17T19:50:18.384Z,16.77
2019-02-17T19:52:47.451Z,14.43
2019-02-17T19:55:16.494Z,14.70
2019-02-17T19:57:45.569Z,15.18
2019-02-17T20:00:16.215Z,13.88
2019-02-17T20:02:59.003Z,47.60
2019-02-17T20:05:29.671Z,15.75
2019-02-17T20:07:58.730Z,15.38
2019-02-17T20:10:27.802Z,15.75
2019-02-17T20:12:56.845Z,16.73
2019-02-17T20:15:27.570Z,16.57
2019-02-17T20:17:56.618Z,14.85
2019-02-17T20:20:25.664Z,16.52
2019-02-17T20:22:54.726Z,15.45
2019-02-17T20:25:23.774Z,14.75
2019-02-17T20:27:52.856Z,18.15
2019-02-17T20:30:21.888Z,16.57
2019-02-17T20:32:50.944Z,15.48
2019-02-17T20:35:20.060Z,15.43
2019-02-17T20:37:49.118Z,17.82
2019-02-17T20:40:18.905Z,18.00
2019-02-17T20:42:47.979Z,19.35
2019-02-17T20:45:17.028Z,19.73
2019-02-17T20:47:46.091Z,18.77
2019-02-17T20:50:16.597Z,17.27
2019-02-17T20:52:45.667Z,16.25
2019-02-17T20:55:14.888Z,17.98
2019-02-17T20:57:43.945Z,17.12
2019-02-17T21:00:14.656Z,17.00
2019-02-17T21:02:43.782Z,19.55
2019-02-17T21:05:13.056Z,16.12
2019-02-17T21:07:42.129Z,15.98
2019-02-17T21:10:12.332Z,18.30
2019-02-17T21:12:41.374Z,18.30
2019-02-17T21:15:12.172Z,16.45
2019-02-17T21:17:41.226Z,18.23
2019-02-17T21:20:11.414Z,14.30
2019-02-17T21:22:40.554Z,17.37
2019-02-17T21:25:11.127Z,16.60
2019-02-17T21:27:40.264Z,21.42
2019-02-17T21:30:14.545Z,20.55
2019-02-17T21:32:43.602Z,19.07
2019-02-17T21:35:14.099Z,20.12
2019-02-17T21:37:43.217Z,17.70
2019-02-17T21:40:13.227Z,20.17
2019-02-17T21:42:42.717Z,19.35
2019-02-17T21:45:13.073Z,18.35
2019-02-17T21:47:42.139Z,22.30
2019-02-17T21:50:13.388Z,21.85
2019-02-17T21:52:42.583Z,19.12
2019-02-17T21:55:13.305Z,19.27
2019-02-17T21:57:42.419Z,19.90
2019-02-17T22:00:17.641Z,19.30
2019-02-17T22:02:46.687Z,19.20
2019-02-17T22:05:15.730Z,21.80
2019-02-17T22:07:45.076Z,19.40
2019-02-17T22:10:16.487Z,19.15
2019-02-17T22:12:45.619Z,17.52
2019-02-17T22:15:21.284Z,19.43
2019-02-17T22:17:49.767Z,20.65
2019-02-17T22:20:18.827Z,20.97
2019-02-17T22:22:47.303Z,19.83
2019-02-17T22:25:16.605Z,18.42
2019-02-17T22:27:45.656Z,19.65
2019-02-17T22:30:15.966Z,21.02
2019-02-17T22:32:44.591Z,20.08
2019-02-17T22:35:13.988Z,21.25
2019-02-17T22:37:43.039Z,19.32
2019-02-17T22:40:13.489Z,19.37
2019-02-17T22:42:41.963Z,19.10
2019-02-17T22:45:13.522Z,19.55
2019-02-17T22:47:42.005Z,20.30
2019-02-17T22:50:15.134Z,20.90
2019-02-17T22:52:45.434Z,22.05
2019-02-17T22:55:14.569Z,18.97
2019-02-17T22:57:43.688Z,17.82
2019-02-17T23:00:49.916Z,21.90
2019-02-17T23:03:18.946Z,18.82
2019-02-17T23:05:48.000Z,19.35
2019-02-17T23:08:16.463Z,19.00
2019-02-17T23:10:44.936Z,20.57
2019-02-17T23:13:13.990Z,19.07
2019-02-17T23:15:42.478Z,17.20
2019-02-17T23:18:10.946Z,18.00
2019-02-17T23:20:39.414Z,20.87
2019-02-17T23:23:07.916Z,16.37
2019-02-17T23:25:36.393Z,17.87
2019-02-17T23:28:05.513Z,20.95
2019-02-17T23:30:34.024Z,16.20
2019-02-17T23:33:02.504Z,17.50
2019-02-17T23:35:30.975Z,18.07
2019-02-17T23:37:59.442Z,18.43
2019-02-17T23:40:27.936Z,20.97
2019-02-17T23:42:56.392Z,19.90
2019-02-17T23:45:24.873Z,18.53
2019-02-17T23:47:53.341Z,18.63
2019-02-17T23:50:21.828Z,17.77
2019-02-17T23:52:50.869Z,19.57
2019-02-17T23:55:19.351Z,17.60
2019-02-17T23:57:47.823Z,21.50
